Terminal Aerodrome Forecast
Issued by NWS

Home | Current Version | Previous Version | Text Only | Print | Product List | Glossary On
Versions: 1 2 3 4 5 6 7 8 9 10 11 12 13 14 15 16 17 18
000
FTUS41 KILN 222335
TAFLUK
TAF
KLUK 222335Z 2300/2324 00000KT P6SM SKC
     FM230600 00000KT 4SM BR SKC
      TEMPO 2309/2312 2SM BR
     FM231300 07004KT P6SM SKC=

USA.gov is the U.S. government's official web portal to all federal, state and local government web resources and services.